createdAt,value
2018-07-28T00:01:39.418Z,10.37
2018-07-28T00:04:07.866Z,11.47
2018-07-28T00:06:36.238Z,11.60
2018-07-28T00:09:08.285Z,11.13
2018-07-28T00:11:36.818Z,10.70
2018-07-28T00:14:05.320Z,10.83
2018-07-28T00:16:33.770Z,12.00
2018-07-28T00:19:02.186Z,10.20
2018-07-28T00:21:30.668Z,11.80
2018-07-28T00:23:59.041Z,10.70
2018-07-28T00:26:27.422Z,11.80
2018-07-28T00:28:55.911Z,11.47
2018-07-28T00:31:24.401Z,10.70
2018-07-28T00:33:52.912Z,12.00
2018-07-28T00:36:21.322Z,10.70
2018-07-28T00:38:49.732Z,11.67
2018-07-28T00:41:18.065Z,10.87
2018-07-28T00:43:46.523Z,11.60
2018-07-28T00:46:14.884Z,11.10
2018-07-28T00:48:43.319Z,11.20
2018-07-28T00:51:11.735Z,10.70
2018-07-28T00:53:40.095Z,10.67
2018-07-28T00:56:08.493Z,11.60
2018-07-28T00:58:36.883Z,10.67
2018-07-28T01:01:05.325Z,10.70
2018-07-28T01:03:33.639Z,11.63
2018-07-28T01:06:02.034Z,10.67
2018-07-28T01:08:30.439Z,10.23
2018-07-28T01:10:58.766Z,10.87
2018-07-28T01:13:27.235Z,11.43
2018-07-28T01:15:55.762Z,11.93
2018-07-28T01:18:24.176Z,11.40
2018-07-28T01:20:52.543Z,10.50
2018-07-28T01:23:21.023Z,11.50
2018-07-28T01:25:49.423Z,11.07
2018-07-28T01:28:17.801Z,11.70
2018-07-28T01:30:46.198Z,11.23
2018-07-28T01:33:14.534Z,10.97
2018-07-28T01:35:42.986Z,11.13
2018-07-28T01:38:11.370Z,10.90
2018-07-28T01:40:39.788Z,10.37
2018-07-28T01:43:08.365Z,10.80
2018-07-28T01:45:36.803Z,10.83
2018-07-28T01:48:05.198Z,11.30
2018-07-28T01:50:33.725Z,11.77
2018-07-28T01:53:02.161Z,11.50
2018-07-28T01:55:30.574Z,11.70
2018-07-28T01:57:58.924Z,10.87
2018-07-28T02:00:27.296Z,10.20
2018-07-28T02:02:55.683Z,10.57
2018-07-28T02:05:24.120Z,11.40
2018-07-28T02:07:52.574Z,11.07
2018-07-28T02:10:20.996Z,9.70
2018-07-28T02:12:49.499Z,10.30
2018-07-28T02:15:17.947Z,10.50
2018-07-28T02:17:46.361Z,9.80
2018-07-28T02:20:14.903Z,10.50
2018-07-28T02:22:43.264Z,10.60
2018-07-28T02:25:12.031Z,10.17
2018-07-28T02:27:40.454Z,9.83
2018-07-28T02:30:08.868Z,10.27
2018-07-28T02:32:37.545Z,9.87
2018-07-28T02:35:06.959Z,10.37
2018-07-28T02:37:35.357Z,10.13
2018-07-28T02:40:03.826Z,9.57
2018-07-28T02:42:32.161Z,10.70
2018-07-28T02:45:00.593Z,9.70
2018-07-28T02:47:28.945Z,10.00
2018-07-28T02:49:57.360Z,10.30
2018-07-28T02:52:25.769Z,10.33
2018-07-28T02:54:54.126Z,10.40
2018-07-28T02:57:22.446Z,10.30
2018-07-28T02:59:50.880Z,9.80
2018-07-28T03:02:19.248Z,9.50
2018-07-28T03:04:47.654Z,10.53
2018-07-28T03:07:16.093Z,10.20
2018-07-28T03:09:44.551Z,10.87
2018-07-28T03:12:13.011Z,9.70
2018-07-28T03:14:41.355Z,10.80
2018-07-28T03:17:09.737Z,10.13
2018-07-28T03:19:38.158Z,9.63
2018-07-28T03:22:07.146Z,10.73
2018-07-28T03:24:35.687Z,10.47
2018-07-28T03:27:04.366Z,10.10
2018-07-28T03:29:32.733Z,11.00
2018-07-28T03:32:01.581Z,10.33
2018-07-28T03:34:30.031Z,9.87
2018-07-28T03:36:58.437Z,10.20
2018-07-28T03:39:26.882Z,10.73
2018-07-28T03:41:55.250Z,9.70
2018-07-28T03:44:23.711Z,10.27
2018-07-28T03:46:52.078Z,10.60
2018-07-28T03:49:20.549Z,10.80
2018-07-28T03:51:48.795Z,10.80
2018-07-28T03:54:17.211Z,10.90
2018-07-28T03:56:45.652Z,10.17
2018-07-28T03:59:14.019Z,9.97
2018-07-28T04:01:42.435Z,10.80
2018-07-28T04:04:10.964Z,10.27
2018-07-28T04:06:39.410Z,10.53
2018-07-28T04:09:08.616Z,11.00
2018-07-28T04:11:37.004Z,10.47
2018-07-28T04:14:05.426Z,11.17
2018-07-28T04:16:33.798Z,10.80
2018-07-28T04:19:02.225Z,10.07
2018-07-28T04:21:30.684Z,11.17
2018-07-28T04:23:59.059Z,9.90
2018-07-28T04:26:27.520Z,10.07
2018-07-28T04:28:55.919Z,10.13
2018-07-28T04:31:24.333Z,9.30
2018-07-28T04:33:52.706Z,10.30
2018-07-28T04:36:21.160Z,9.43
2018-07-28T04:38:49.487Z,9.57
2018-07-28T04:41:17.865Z,10.13
2018-07-28T04:43:46.248Z,10.10
2018-07-28T04:46:14.661Z,9.13
2018-07-28T04:48:43.050Z,9.93
2018-07-28T04:51:11.465Z,9.57
2018-07-28T04:53:39.865Z,9.67
2018-07-28T04:56:08.263Z,10.17
2018-07-28T04:58:36.675Z,10.00
2018-07-28T05:01:05.112Z,10.13
2018-07-28T05:03:33.509Z,9.07
2018-07-28T05:06:01.850Z,9.97
2018-07-28T05:08:30.248Z,9.87
2018-07-28T05:10:58.699Z,9.50
2018-07-28T05:13:27.126Z,8.80
2018-07-28T05:15:55.673Z,8.83
2018-07-28T05:18:24.063Z,8.30
2018-07-28T05:20:52.528Z,8.13
2018-07-28T05:23:20.981Z,7.67
2018-07-28T05:25:49.435Z,7.93
2018-07-28T05:28:17.772Z,8.07
2018-07-28T05:30:46.269Z,7.83
2018-07-28T05:33:14.747Z,7.20
2018-07-28T05:35:43.145Z,7.77
2018-07-28T05:38:11.652Z,7.30
2018-07-28T05:40:40.098Z,7.63
2018-07-28T05:43:08.517Z,7.03
2018-07-28T05:45:36.901Z,7.40
2018-07-28T05:48:05.543Z,7.70
2018-07-28T05:50:34.013Z,6.40
2018-07-28T05:53:02.355Z,7.10
2018-07-28T05:55:30.763Z,7.10
2018-07-28T05:57:59.118Z,7.10
2018-07-28T06:00:27.596Z,7.07
2018-07-28T06:02:55.975Z,6.13
2018-07-28T06:05:24.417Z,6.40
2018-07-28T06:07:52.870Z,6.93
2018-07-28T06:10:21.253Z,6.67
2018-07-28T06:12:49.577Z,6.93
2018-07-28T06:15:17.973Z,7.07
2018-07-28T06:17:46.321Z,7.03
2018-07-28T06:20:14.747Z,6.73
2018-07-28T06:22:43.171Z,7.00
2018-07-28T06:25:11.613Z,6.80
2018-07-28T06:27:39.977Z,7.00
2018-07-28T06:30:09.475Z,6.50
2018-07-28T06:32:38.104Z,6.83
2018-07-28T06:35:06.559Z,6.20
2018-07-28T06:37:35.049Z,6.13
2018-07-28T06:40:03.679Z,5.83
2018-07-28T06:42:32.077Z,6.20
2018-07-28T06:45:00.465Z,6.07
2018-07-28T06:47:28.969Z,5.90
2018-07-28T06:49:57.383Z,6.30
2018-07-28T06:52:26.076Z,6.20
2018-07-28T06:54:54.675Z,6.13
2018-07-28T06:57:23.239Z,5.70
2018-07-28T06:59:51.777Z,6.37
2018-07-28T07:02:20.093Z,6.00
2018-07-28T07:04:48.537Z,6.47
2018-07-28T07:07:16.821Z,6.80
2018-07-28T07:09:45.260Z,6.30
2018-07-28T07:12:13.836Z,6.00
2018-07-28T07:14:42.256Z,6.93
2018-07-28T07:17:10.581Z,6.00
2018-07-28T07:19:38.903Z,6.40
2018-07-28T07:22:07.267Z,7.70
2018-07-28T07:24:35.716Z,6.03
2018-07-28T07:27:04.218Z,6.30
2018-07-28T07:29:32.660Z,6.07
2018-07-28T07:32:01.079Z,6.60
2018-07-28T07:34:29.499Z,6.53
2018-07-28T07:36:57.903Z,6.43
2018-07-28T07:39:26.267Z,6.43
2018-07-28T07:41:54.840Z,6.20
2018-07-28T07:44:23.274Z,5.70
2018-07-28T07:46:51.663Z,6.50
2018-07-28T07:49:19.992Z,6.10
2018-07-28T07:51:48.369Z,6.00
2018-07-28T07:54:16.715Z,6.20
2018-07-28T07:56:45.093Z,6.73
2018-07-28T07:59:13.414Z,5.73
2018-07-28T08:01:41.698Z,6.10
2018-07-28T08:04:10.033Z,6.33
2018-07-28T08:06:38.413Z,5.80
2018-07-28T08:09:08.550Z,5.50
2018-07-28T08:11:37.054Z,5.83
2018-07-28T08:14:05.832Z,5.37
2018-07-28T08:16:34.269Z,6.00
2018-07-28T08:19:02.701Z,5.60
2018-07-28T08:21:30.729Z,5.53
2018-07-28T08:23:59.146Z,5.60
2018-07-28T08:26:27.487Z,6.10
2018-07-28T08:28:55.932Z,5.43
2018-07-28T08:31:24.323Z,5.87
2018-07-28T08:33:52.763Z,5.80
2018-07-28T08:36:21.130Z,5.90
2018-07-28T08:38:49.444Z,5.97
2018-07-28T08:41:17.849Z,5.27
2018-07-28T08:43:46.384Z,5.70
2018-07-28T08:46:14.858Z,5.70
2018-07-28T08:48:43.852Z,5.40
2018-07-28T08:51:12.751Z,5.43
2018-07-28T08:53:41.141Z,5.77
2018-07-28T08:56:09.577Z,5.73
2018-07-28T08:58:38.014Z,4.80
2018-07-28T09:01:06.478Z,5.90
2018-07-28T09:03:34.867Z,5.10
2018-07-28T09:06:03.301Z,5.57
2018-07-28T09:08:31.709Z,5.90
2018-07-28T09:11:00.101Z,5.23
2018-07-28T09:13:28.565Z,5.73
2018-07-28T09:15:57.001Z,5.10
2018-07-28T09:18:25.351Z,5.63
2018-07-28T09:20:53.812Z,4.63
2018-07-28T09:23:22.242Z,5.33
2018-07-28T09:25:50.513Z,5.13
2018-07-28T09:28:18.923Z,5.10
2018-07-28T09:30:47.343Z,5.30
2018-07-28T09:33:15.811Z,5.17
2018-07-28T09:35:44.205Z,5.50
2018-07-28T09:38:12.536Z,4.93
2018-07-28T09:40:40.910Z,5.10
2018-07-28T09:43:09.373Z,5.07
2018-07-28T09:45:37.730Z,4.87
2018-07-28T09:48:06.323Z,4.73
2018-07-28T09:50:34.661Z,5.00
2018-07-28T09:53:03.052Z,5.00
2018-07-28T09:55:31.503Z,4.50
2018-07-28T09:57:59.996Z,5.33
2018-07-28T10:00:33.700Z,4.70
2018-07-28T10:03:02.070Z,5.00
2018-07-28T10:05:30.495Z,4.93
2018-07-28T10:07:58.914Z,4.70
2018-07-28T10:10:27.370Z,4.80
2018-07-28T10:12:55.830Z,5.20
2018-07-28T10:15:24.203Z,5.00
2018-07-28T10:17:52.553Z,4.80
2018-07-28T10:20:20.917Z,4.70
2018-07-28T10:22:49.343Z,5.13
2018-07-28T10:25:17.695Z,5.03
2018-07-28T10:27:46.124Z,5.50
2018-07-28T10:30:14.522Z,5.53
2018-07-28T10:32:42.924Z,5.33
2018-07-28T10:35:12.262Z,4.70
2018-07-28T10:37:40.648Z,5.30
2018-07-28T10:40:09.971Z,5.03
2018-07-28T10:42:38.662Z,4.50
2018-07-28T10:45:07.365Z,5.30
2018-07-28T10:47:35.731Z,5.23
2018-07-28T10:50:04.513Z,5.10
2018-07-28T10:52:32.859Z,5.70
2018-07-28T10:55:01.255Z,4.60
2018-07-28T10:57:29.716Z,4.63
2018-07-28T10:59:58.132Z,4.60
2018-07-28T11:02:26.600Z,4.80
2018-07-28T11:04:55.053Z,4.83
2018-07-28T11:07:23.531Z,5.77
2018-07-28T11:09:51.861Z,5.03
2018-07-28T11:12:20.321Z,5.30
2018-07-28T11:14:49.592Z,5.97
2018-07-28T11:17:17.939Z,5.13
2018-07-28T11:19:46.393Z,4.80
2018-07-28T11:22:14.829Z,4.70
2018-07-28T11:24:43.280Z,5.40
2018-07-28T11:27:11.669Z,5.30
2018-07-28T11:29:39.992Z,5.60
2018-07-28T11:32:19.557Z,5.20
2018-07-28T11:34:59.277Z,4.90
2018-07-28T11:37:51.188Z,5.70
2018-07-28T11:40:30.961Z,5.53
2018-07-28T11:43:04.711Z,5.53
2018-07-28T11:45:33.156Z,5.90
2018-07-28T11:48:01.548Z,5.50
2018-07-28T11:50:29.869Z,5.93
2018-07-28T11:52:58.403Z,5.50
2018-07-28T11:55:26.820Z,5.10
2018-07-28T11:57:55.252Z,5.87
2018-07-28T12:00:23.653Z,5.70
2018-07-28T12:02:52.055Z,5.93
2018-07-28T12:05:20.464Z,6.00
2018-07-28T12:07:48.821Z,6.30
2018-07-28T12:10:17.208Z,6.30
2018-07-28T12:12:45.601Z,6.00
2018-07-28T12:15:14.006Z,6.07
2018-07-28T12:17:42.345Z,6.20
2018-07-28T12:20:10.672Z,5.87
2018-07-28T12:22:39.214Z,6.20
2018-07-28T12:25:07.644Z,5.90
2018-07-28T12:27:36.045Z,6.50
2018-07-28T12:30:05.491Z,6.30
2018-07-28T12:32:33.906Z,5.67
2018-07-28T12:35:02.416Z,6.17
2018-07-28T12:37:30.758Z,6.70
2018-07-28T12:39:59.219Z,6.50
2018-07-28T12:42:27.637Z,6.57
2018-07-28T12:44:56.084Z,6.47
2018-07-28T12:47:24.520Z,6.43
2018-07-28T12:49:52.926Z,6.43
2018-07-28T12:52:21.286Z,6.80
2018-07-28T12:54:49.752Z,6.23
2018-07-28T12:57:18.104Z,6.83
2018-07-28T12:59:46.793Z,7.40
2018-07-28T13:02:15.144Z,6.67
2018-07-28T13:04:43.466Z,6.73
2018-07-28T13:07:11.847Z,6.80
2018-07-28T13:09:40.284Z,7.30
2018-07-28T13:12:08.745Z,6.23
2018-07-28T13:14:37.077Z,6.40
2018-07-28T13:17:05.624Z,5.90
2018-07-28T13:19:33.890Z,6.27
2018-07-28T13:22:02.367Z,5.80
2018-07-28T13:24:30.793Z,5.73
2018-07-28T13:26:59.180Z,6.10
2018-07-28T13:29:27.803Z,6.10
2018-07-28T13:31:56.120Z,5.80
2018-07-28T13:34:24.531Z,5.50
2018-07-28T13:36:52.932Z,6.23
2018-07-28T13:39:21.319Z,5.10
2018-07-28T13:41:49.756Z,5.10
2018-07-28T13:44:18.120Z,5.17
2018-07-28T13:46:46.479Z,5.80
2018-07-28T13:49:14.876Z,5.17
2018-07-28T13:51:43.424Z,5.67
2018-07-28T13:54:11.903Z,5.07
2018-07-28T13:56:40.259Z,5.40
2018-07-28T13:59:08.703Z,5.20
2018-07-28T14:01:37.152Z,5.50
2018-07-28T14:04:05.885Z,6.47
2018-07-28T14:06:34.208Z,5.67
2018-07-28T14:09:02.651Z,5.17
2018-07-28T14:11:31.085Z,5.10
2018-07-28T14:13:59.528Z,5.17
2018-07-28T14:16:27.963Z,4.57
2018-07-28T14:18:56.333Z,4.80
2018-07-28T14:21:24.701Z,4.80
2018-07-28T14:23:53.131Z,4.80
2018-07-28T14:26:21.528Z,5.17
2018-07-28T14:28:50.137Z,4.97
2018-07-28T14:31:18.484Z,4.60
2018-07-28T14:33:46.825Z,4.80
2018-07-28T14:36:15.244Z,4.80
2018-07-28T14:38:43.716Z,4.90
2018-07-28T14:41:12.115Z,4.80
2018-07-28T14:43:40.518Z,4.20
2018-07-28T14:46:08.935Z,4.93
2018-07-28T14:48:37.357Z,4.60
2018-07-28T14:51:05.736Z,4.50
2018-07-28T14:53:34.099Z,4.40
2018-07-28T14:56:02.487Z,4.40
2018-07-28T14:58:30.936Z,4.50
2018-07-28T15:00:59.387Z,5.10
2018-07-28T15:03:27.757Z,4.10
2018-07-28T15:05:56.168Z,3.93
2018-07-28T15:08:24.750Z,3.67
2018-07-28T15:10:53.110Z,4.33
2018-07-28T15:13:21.814Z,4.37
2018-07-28T15:15:50.360Z,4.30
2018-07-28T15:18:18.671Z,4.37
2018-07-28T15:20:47.019Z,4.70
2018-07-28T15:23:15.500Z,4.77
2018-07-28T15:25:44.030Z,5.20
2018-07-28T15:28:12.910Z,4.30
2018-07-28T15:30:41.294Z,4.80
2018-07-28T15:33:09.688Z,5.57
2018-07-28T15:35:38.095Z,4.80
2018-07-28T15:38:06.490Z,4.80
2018-07-28T15:40:34.950Z,4.80
2018-07-28T15:43:03.329Z,4.70
2018-07-28T15:45:31.704Z,4.90
2018-07-28T15:48:00.063Z,5.73
2018-07-28T15:50:28.485Z,5.00
2018-07-28T15:52:56.932Z,4.90
2018-07-28T15:55:25.331Z,5.10
2018-07-28T15:57:53.693Z,5.00
2018-07-28T16:00:22.148Z,5.47
2018-07-28T16:02:50.657Z,5.20
2018-07-28T16:05:19.220Z,5.60
2018-07-28T16:07:47.841Z,5.77
2018-07-28T16:10:16.513Z,5.17
2018-07-28T16:12:45.074Z,5.40
2018-07-28T16:15:13.363Z,4.87
2018-07-28T16:17:41.779Z,4.53
2018-07-28T16:20:10.242Z,4.57
2018-07-28T16:22:38.631Z,4.70
2018-07-28T16:25:07.110Z,4.80
2018-07-28T16:27:35.541Z,5.47
2018-07-28T16:30:04.911Z,5.27
2018-07-28T16:32:33.297Z,5.03
2018-07-28T16:35:01.772Z,5.33
2018-07-28T16:37:30.185Z,4.33
2018-07-28T16:39:58.524Z,5.17
2018-07-28T16:42:26.925Z,5.30
2018-07-28T16:44:55.357Z,5.10
2018-07-28T16:47:23.763Z,5.30
2018-07-28T16:49:52.702Z,5.30
2018-07-28T16:52:21.179Z,4.87
2018-07-28T16:54:49.535Z,4.70
2018-07-28T16:57:17.938Z,5.53
2018-07-28T16:59:46.362Z,5.30
2018-07-28T17:02:14.843Z,4.87
2018-07-28T17:04:43.131Z,4.97
2018-07-28T17:07:11.567Z,4.90
2018-07-28T17:09:39.854Z,4.70
2018-07-28T17:12:08.208Z,4.73
2018-07-28T17:14:36.552Z,5.13
2018-07-28T17:17:04.895Z,4.50
2018-07-28T17:19:33.256Z,5.17
2018-07-28T17:22:01.592Z,5.23
2018-07-28T17:24:29.881Z,4.90
2018-07-28T17:26:58.244Z,5.53
2018-07-28T17:29:26.677Z,5.47
2018-07-28T17:31:54.985Z,5.20
2018-07-28T17:34:23.304Z,6.40
2018-07-28T17:36:51.640Z,5.10
2018-07-28T17:39:19.927Z,5.13
2018-07-28T17:41:48.286Z,5.43
2018-07-28T17:44:16.744Z,5.20
2018-07-28T17:46:45.238Z,5.30
2018-07-28T17:49:13.477Z,6.10
2018-07-28T17:51:41.785Z,5.07
2018-07-28T17:54:10.175Z,5.47
2018-07-28T17:56:38.593Z,6.63
2018-07-28T17:59:06.966Z,6.13
2018-07-28T18:01:35.461Z,5.90
2018-07-28T18:04:03.901Z,5.53
2018-07-28T18:06:32.282Z,4.90
2018-07-28T18:09:00.841Z,5.83
2018-07-28T18:11:29.296Z,5.30
2018-07-28T18:13:57.751Z,5.37
2018-07-28T18:16:26.231Z,5.10
2018-07-28T18:18:54.778Z,4.90
2018-07-28T18:21:23.124Z,4.83
2018-07-28T18:23:51.504Z,5.80
2018-07-28T18:26:19.891Z,5.37
2018-07-28T18:28:48.260Z,5.07
2018-07-28T18:31:16.631Z,5.57
2018-07-28T18:33:45.023Z,4.80
2018-07-28T18:36:13.452Z,5.53
2018-07-28T18:38:41.857Z,5.37
2018-07-28T18:41:10.205Z,5.20
2018-07-28T18:43:38.581Z,4.90
2018-07-28T18:46:07.024Z,4.70
2018-07-28T18:48:35.433Z,4.53
2018-07-28T18:51:03.812Z,4.87
2018-07-28T18:53:32.150Z,4.40
2018-07-28T18:56:00.572Z,5.07
2018-07-28T18:58:29.072Z,5.47
2018-07-28T19:00:57.500Z,5.13
2018-07-28T19:03:25.955Z,4.87
2018-07-28T19:05:54.326Z,5.17
2018-07-28T19:08:22.731Z,6.50
2018-07-28T19:10:52.684Z,8.00
2018-07-28T19:13:26.994Z,5.43
2018-07-28T19:15:55.569Z,5.53
2018-07-28T19:18:29.205Z,5.87
2018-07-28T19:20:57.738Z,5.80
2018-07-28T19:23:31.443Z,5.97
2018-07-28T19:25:59.812Z,4.67
2018-07-28T19:28:33.575Z,5.57
2018-07-28T19:31:02.028Z,5.53
2018-07-28T19:33:30.399Z,5.80
2018-07-28T19:36:03.986Z,5.43
2018-07-28T19:38:32.462Z,5.20
2018-07-28T19:41:00.958Z,5.00
2018-07-28T19:43:29.372Z,5.53
2018-07-28T19:45:57.766Z,5.83
2018-07-28T19:48:26.159Z,5.90
2018-07-28T19:50:54.513Z,5.43
2018-07-28T19:53:22.862Z,5.33
2018-07-28T19:55:51.237Z,5.87
2018-07-28T19:58:19.591Z,6.30
2018-07-28T20:00:47.941Z,5.90
2018-07-28T20:03:16.509Z,6.17
2018-07-28T20:05:45.237Z,5.67
2018-07-28T20:08:13.624Z,5.53
2018-07-28T20:10:41.960Z,5.50
2018-07-28T20:13:10.424Z,5.63
2018-07-28T20:15:38.769Z,5.93
2018-07-28T20:18:07.399Z,5.93
2018-07-28T20:20:35.815Z,6.00
2018-07-28T20:23:04.218Z,6.23
2018-07-28T20:25:32.624Z,5.70
2018-07-28T20:28:01.046Z,5.73
2018-07-28T20:30:29.509Z,5.60
2018-07-28T20:32:57.948Z,6.00
2018-07-28T20:35:26.298Z,5.27
2018-07-28T20:37:54.661Z,5.80
2018-07-28T20:40:23.084Z,5.67
2018-07-28T20:42:51.473Z,6.53
2018-07-28T20:45:19.846Z,5.87
2018-07-28T20:47:48.225Z,6.03
2018-07-28T20:50:16.609Z,5.57
2018-07-28T20:52:45.096Z,5.30
2018-07-28T20:55:13.463Z,5.50
2018-07-28T20:57:41.833Z,5.47
2018-07-28T21:00:10.246Z,5.30
2018-07-28T21:02:38.565Z,5.87
2018-07-28T21:05:07.033Z,6.33
2018-07-28T21:07:35.403Z,6.10
2018-07-28T21:10:03.856Z,6.63
2018-07-28T21:12:32.270Z,5.63
2018-07-28T21:15:00.924Z,5.87
2018-07-28T21:17:29.349Z,5.43
2018-07-28T21:19:57.815Z,5.80
2018-07-28T21:22:26.185Z,5.17
2018-07-28T21:24:54.539Z,6.40
2018-07-28T21:27:22.993Z,5.87
2018-07-28T21:29:51.413Z,5.80
2018-07-28T21:32:20.043Z,5.67
2018-07-28T21:34:48.422Z,5.97
2018-07-28T21:37:16.854Z,6.20
2018-07-28T21:39:45.266Z,5.90
2018-07-28T21:42:13.704Z,5.77
2018-07-28T21:44:42.068Z,5.80
2018-07-28T21:47:10.419Z,5.10
2018-07-28T21:49:38.823Z,5.57
2018-07-28T21:52:07.322Z,6.73
2018-07-28T21:54:35.720Z,6.13
2018-07-28T21:57:04.112Z,6.37
2018-07-28T21:59:32.649Z,6.70
2018-07-28T22:02:01.008Z,5.47
2018-07-28T22:04:31.478Z,5.97
2018-07-28T22:06:59.957Z,5.40
2018-07-28T22:09:28.852Z,5.30
2018-07-28T22:11:57.200Z,5.97
2018-07-28T22:14:25.811Z,6.00
2018-07-28T22:16:54.154Z,6.27
2018-07-28T22:19:22.662Z,5.97
2018-07-28T22:21:51.120Z,6.00
2018-07-28T22:24:19.589Z,6.07
2018-07-28T22:26:47.986Z,6.07
2018-07-28T22:29:16.394Z,5.73
2018-07-28T22:31:44.829Z,6.13
2018-07-28T22:34:13.235Z,6.17
2018-07-28T22:36:41.709Z,6.10
2018-07-28T22:39:11.227Z,5.43
2018-07-28T22:41:39.742Z,5.70
2018-07-28T22:44:08.181Z,6.73
2018-07-28T22:46:36.773Z,5.97
2018-07-28T22:49:05.228Z,5.90
2018-07-28T22:51:33.665Z,5.77
2018-07-28T22:54:01.979Z,5.70
2018-07-28T22:56:30.289Z,6.07
2018-07-28T22:58:58.740Z,5.47
2018-07-28T23:01:27.036Z,6.10
2018-07-28T23:03:55.349Z,6.03
2018-07-28T23:06:23.695Z,5.63
2018-07-28T23:08:52.108Z,6.13
2018-07-28T23:11:20.462Z,5.40
2018-07-28T23:13:48.836Z,5.30
2018-07-28T23:16:17.190Z,5.80
2018-07-28T23:18:45.589Z,5.53
2018-07-28T23:21:13.874Z,5.33
2018-07-28T23:23:42.231Z,5.63
2018-07-28T23:26:10.562Z,5.90
2018-07-28T23:28:38.937Z,5.90
2018-07-28T23:31:07.533Z,5.00
2018-07-28T23:33:35.903Z,5.00
2018-07-28T23:36:04.351Z,5.90
2018-07-28T23:38:32.713Z,6.10
2018-07-28T23:41:01.336Z,5.57
2018-07-28T23:43:29.729Z,4.90
2018-07-28T23:45:58.112Z,5.57
2018-07-28T23:48:26.689Z,5.30
2018-07-28T23:50:55.943Z,6.13
2018-07-28T23:53:24.464Z,6.10
2018-07-28T23:55:52.825Z,5.83
2018-07-28T23:58:21.189Z,5.10
